Love Boat — OT3861 — position and weather

sailwx.info

Track history (hours):
 
Tides and Currents Weather Stations Pressure Air Temp Water Temp Dewpoint Dewpoint Depression Visibility Wind Speed Wind Dir Waves Ship Positions

Love Boat

Last reported at 2015-Aug-21 18:24 UTC. Time now 2015-Aug-28 12:50 UTC.
Position N 50°49' E 007°01'.

Length 110 m.

Type: Ship. MMSI: 205386190.

Date/timePositionNaut miles runAvg speedWind from/ knotsBaromVisibWave heightAir tempDewpointWater temp
2015-Aug-21 18:24N 50°49' E 007°01'2 2.4
2015-Aug-21 17:27N 50°52' E 007°01'2 2.2
2015-Aug-21 16:29N 50°54' E 007°00'4 3.8
2015-Aug-21 15:32N 50°57' E 006°58'54 2.6
2015-Aug-20 19:14N 51°45' E 006°21'4 5.5
2015-Aug-20 18:30N 51°49' E 006°17'21 4.9
2015-Aug-20 14:18N 51°53' E 005°45'5 5.4
2015-Aug-20 13:27N 51°54' E 005°37'5 5.3
2015-Aug-20 12:34N 51°53' E 005°30'5 5.0
2015-Aug-20 11:33N 51°50' E 005°24'4 3.9
2015-Aug-20 10:33N 51°49' E 005°17'6 5.5
2015-Aug-20 09:33N 51°49' E 005°09'6 6.1
2015-Aug-20 08:34N 51°49' E 004°59'6 6.1
2015-Aug-20 07:32N 51°48' E 004°49'6 6.1
2015-Aug-20 06:33N 51°44' E 004°42'9 7.4
2015-Aug-20 05:21N 51°42' E 004°28'3 3.4
2015-Aug-20 04:28N 51°41' E 004°23'7 6.9
2015-Aug-20 03:30N 51°39' E 004°13'4 3.5
2015-Aug-20 02:18N 51°39' E 004°06'6 7.8
2015-Aug-20 01:33N 51°36' E 003°59'6 6.1
2015-Aug-20 00:34N 51°30' E 004°00'4 4.3
2015-Aug-19 23:33N 51°26' E 003°59'6 5.8
2015-Aug-19 22:32N 51°21' E 003°53'3 3.0
2015-Aug-19 21:29N 51°20' E 003°49'5 5.5
2015-Aug-19 20:30N 51°14' E 003°49'6 6.3
2015-Aug-19 19:33N 51°08' E 003°47'3 3.2
2015-Aug-19 18:33N 51°05' E 003°45'0 0.0
2015-Aug-19 17:33N 51°05' E 003°45'0 0.0
2015-Aug-19 16:33N 51°05' E 003°45'0 0.1
2015-Aug-19 15:33N 51°05' E 003°45'7 7.2
2015-Aug-19 14:33N 51°12' E 003°48'8 7.2
2015-Aug-19 13:30N 51°20' E 003°49'1 0.6
2015-Aug-19 12:33N 51°21' E 003°49'8 8.5
2015-Aug-19 11:33N 51°26' E 003°59'9 9.4
2015-Aug-19 10:33N 51°22' E 004°13'3 3.4
2015-Aug-19 09:33N 51°21' E 004°18'0 0.2
2015-Aug-19 08:33N 51°21' E 004°18'2 2.0
2015-Aug-19 07:31N 51°22' E 004°16'5 5.0
2015-Aug-19 06:32N 51°27' E 004°14'3 3.5
2015-Aug-19 05:33N 51°30' E 004°16'0 0.0
2015-Aug-19 04:33N 51°30' E 004°16'0 0.0
2015-Aug-19 03:33N 51°30' E 004°16'0 0.0
2015-Aug-19 02:33N 51°30' E 004°16'0 0.0
2015-Aug-19 01:33N 51°30' E 004°16'0 0.0
2015-Aug-19 00:33N 51°30' E 004°16'0 0.0
2015-Aug-18 23:33N 51°30' E 004°16'0 0.0
2015-Aug-18 22:33N 51°30' E 004°16'0 0.0
2015-Aug-18 21:33N 51°30' E 004°16'0 0.0
2015-Aug-18 20:33N 51°30' E 004°16'0 0.0
2015-Aug-18 19:33N 51°30' E 004°16'0 0.0
2015-Aug-18 18:31N 51°30' E 004°16'0 0.0
2015-Aug-18 17:33N 51°30' E 004°16'0 0.0
2015-Aug-18 16:33N 51°30' E 004°16'0 0.0
2015-Aug-18 15:34N 51°30' E 004°16'0 0.0
2015-Aug-18 14:33N 51°30' E 004°16'0 0.0
2015-Aug-18 13:34N 51°30' E 004°16'0 0.0
2015-Aug-18 12:33N 51°30' E 004°16'0 0.2
2015-Aug-18 11:33N 51°30' E 004°15'0 0.0
2015-Aug-18 10:27N 51°30' E 004°15'0 0.0
2015-Aug-18 09:33N 51°30' E 004°15'0 0.0
2015-Aug-18 07:33N 51°30' E 004°15'0 0.0
2015-Aug-18 06:33N 51°30' E 004°15'0 0.0
2015-Aug-18 04:16N 51°30' E 004°15'0 0.0
2015-Aug-18 04:11N 51°30' E 004°15'0 0.0
2015-Aug-18 04:08N 51°30' E 004°15'0 0.0
2015-Aug-18 03:33N 51°30' E 004°15'0 0.0
2015-Aug-18 02:33N 51°30' E 004°15'0 0.0
2015-Aug-18 01:33N 51°30' E 004°15'0 0.0
2015-Aug-18 00:13N 51°30' E 004°15'0 0.0
2015-Aug-17 23:33N 51°30' E 004°15'0 0.0
2015-Aug-17 22:33N 51°30' E 004°15'0 0.0
2015-Aug-17 21:33N 51°30' E 004°15'0 0.0
2015-Aug-17 20:33N 51°30' E 004°15'0 0.0
2015-Aug-17 19:33N 51°30' E 004°15'0 0.0
2015-Aug-17 18:33N 51°30' E 004°15'0 0.0
2015-Aug-17 17:32N 51°30' E 004°15'0 0.0
2015-Aug-17 16:27N 51°30' E 004°15'0 0.0
2015-Aug-17 15:33N 51°30' E 004°15'0 0.0
2015-Aug-17 14:30N 51°30' E 004°15'0 0.0
2015-Aug-17 13:33N 51°30' E 004°15'0 0.0
2015-Aug-17 11:31N 51°30' E 004°15'0 0.0
2015-Aug-17 10:33N 51°30' E 004°15'0 0.0
2015-Aug-17 09:31N 51°30' E 004°15'0 0.0
2015-Aug-17 08:32N 51°30' E 004°15'0 0.0
2015-Aug-17 07:26N 51°30' E 004°15'0 0.0
2015-Aug-17 06:33N 51°30' E 004°15'0 0.0
2015-Aug-17 05:34N 51°30' E 004°15'0 0.0
2015-Aug-17 04:33N 51°30' E 004°15'0 0.0
2015-Aug-17 03:33N 51°30' E 004°15'0 0.0
2015-Aug-17 02:33N 51°30' E 004°15'0 0.0
2015-Aug-17 01:33N 51°30' E 004°15'0 0.0
2015-Aug-17 00:33N 51°30' E 004°15'0 0.0
2015-Aug-16 23:33N 51°30' E 004°15'0 0.0
2015-Aug-16 22:32N 51°30' E 004°15'0 0.0
2015-Aug-16 21:32N 51°30' E 004°15'0 0.0
2015-Aug-16 20:31N 51°30' E 004°15'0 0.0
2015-Aug-16 19:33N 51°30' E 004°15'0 0.0
2015-Aug-16 18:33N 51°30' E 004°15'0 0.1
2015-Aug-16 17:33N 51°30' E 004°15'1 0.7
2015-Aug-16 16:33N 51°30' E 004°16'0 0.0
2015-Aug-16 15:33N 51°30' E 004°16'1 1.4
2015-Aug-16 14:33N 51°30' E 004°14'7 6.1
2015-Aug-16 13:28N 51°36' E 004°11'9 6.9
2015-Aug-16 12:14N 51°41' E 004°23'3 3.7
2015-Aug-16 11:27N 51°42' E 004°27'7 7.0
2015-Aug-16 10:26N 51°43' E 004°39'21 6.6
2015-Aug-16 07:16N 51°49' E 005°11'5 7.3
2015-Aug-16 06:33N 51°49' E 005°20'14 0.9
2015-Aug-15 16:04N 51°54' E 005°41'5 8.8
2015-Aug-15 15:31N 51°53' E 005°48'17 7.2
2015-Aug-15 13:05N 51°49' E 006°16'38 5.8
2015-Aug-15 06:33N 51°15' E 006°44'5 4.6
2015-Aug-15 05:33N 51°11' E 006°46'5 4.9
2015-Aug-15 04:33N 51°08' E 006°51'11 0.3
2015-Aug-13 18:32N 50°58' E 006°60'  
Track history (hours):
 
Tides and Currents Weather Stations Pressure Air Temp Water Temp Dewpoint Dewpoint Depression Visibility Wind Speed Wind Dir Waves Ship Positions

Love Boat

Last reported at 2015-Aug-21 18:24 UTC. Time now 2015-Aug-28 12:50 UTC.
Position N 50°49' E 007°01'.

Length 110 m.

Type: Ship. MMSI: 205386190.

Date/timePositionNaut miles runAvg speedWind from/ knotsBaromVisibWave heightAir tempDewpointWater temp
2015-Aug-21 18:24N 50°49' E 007°01'2 2.4
2015-Aug-21 17:27N 50°52' E 007°01'2 2.2
2015-Aug-21 16:29N 50°54' E 007°00'4 3.8
2015-Aug-21 15:32N 50°57' E 006°58'54 2.6
2015-Aug-20 19:14N 51°45' E 006°21'4 5.5
2015-Aug-20 18:30N 51°49' E 006°17'21 4.9
2015-Aug-20 14:18N 51°53' E 005°45'5 5.4
2015-Aug-20 13:27N 51°54' E 005°37'5 5.3
2015-Aug-20 12:34N 51°53' E 005°30'5 5.0
2015-Aug-20 11:33N 51°50' E 005°24'4 3.9
2015-Aug-20 10:33N 51°49' E 005°17'6 5.5
2015-Aug-20 09:33N 51°49' E 005°09'6 6.1
2015-Aug-20 08:34N 51°49' E 004°59'6 6.1
2015-Aug-20 07:32N 51°48' E 004°49'6 6.1
2015-Aug-20 06:33N 51°44' E 004°42'9 7.4
2015-Aug-20 05:21N 51°42' E 004°28'3 3.4
2015-Aug-20 04:28N 51°41' E 004°23'7 6.9
2015-Aug-20 03:30N 51°39' E 004°13'4 3.5
2015-Aug-20 02:18N 51°39' E 004°06'6 7.8
2015-Aug-20 01:33N 51°36' E 003°59'6 6.1
2015-Aug-20 00:34N 51°30' E 004°00'4 4.3
2015-Aug-19 23:33N 51°26' E 003°59'6 5.8
2015-Aug-19 22:32N 51°21' E 003°53'3 3.0
2015-Aug-19 21:29N 51°20' E 003°49'5 5.5
2015-Aug-19 20:30N 51°14' E 003°49'6 6.3
2015-Aug-19 19:33N 51°08' E 003°47'3 3.2
2015-Aug-19 18:33N 51°05' E 003°45'0 0.0
2015-Aug-19 17:33N 51°05' E 003°45'0 0.0
2015-Aug-19 16:33N 51°05' E 003°45'0 0.1
2015-Aug-19 15:33N 51°05' E 003°45'7 7.2
2015-Aug-19 14:33N 51°12' E 003°48'8 7.2
2015-Aug-19 13:30N 51°20' E 003°49'1 0.6
2015-Aug-19 12:33N 51°21' E 003°49'8 8.5
2015-Aug-19 11:33N 51°26' E 003°59'9 9.4
2015-Aug-19 10:33N 51°22' E 004°13'3 3.4
2015-Aug-19 09:33N 51°21' E 004°18'0 0.2
2015-Aug-19 08:33N 51°21' E 004°18'2 2.0
2015-Aug-19 07:31N 51°22' E 004°16'5 5.0
2015-Aug-19 06:32N 51°27' E 004°14'3 3.5
2015-Aug-19 05:33N 51°30' E 004°16'0 0.0
2015-Aug-19 04:33N 51°30' E 004°16'0 0.0
2015-Aug-19 03:33N 51°30' E 004°16'0 0.0
2015-Aug-19 02:33N 51°30' E 004°16'0 0.0
2015-Aug-19 01:33N 51°30' E 004°16'0 0.0
2015-Aug-19 00:33N 51°30' E 004°16'0 0.0
2015-Aug-18 23:33N 51°30' E 004°16'0 0.0
2015-Aug-18 22:33N 51°30' E 004°16'0 0.0
2015-Aug-18 21:33N 51°30' E 004°16'0 0.0
2015-Aug-18 20:33N 51°30' E 004°16'0 0.0
2015-Aug-18 19:33N 51°30' E 004°16'0 0.0
2015-Aug-18 18:31N 51°30' E 004°16'0 0.0
2015-Aug-18 17:33N 51°30' E 004°16'0 0.0
2015-Aug-18 16:33N 51°30' E 004°16'0 0.0
2015-Aug-18 15:34N 51°30' E 004°16'0 0.0
2015-Aug-18 14:33N 51°30' E 004°16'0 0.0
2015-Aug-18 13:34N 51°30' E 004°16'0 0.0
2015-Aug-18 12:33N 51°30' E 004°16'0 0.2
2015-Aug-18 11:33N 51°30' E 004°15'0 0.0
2015-Aug-18 10:27N 51°30' E 004°15'0 0.0
2015-Aug-18 09:33N 51°30' E 004°15'0 0.0
2015-Aug-18 07:33N 51°30' E 004°15'0 0.0
2015-Aug-18 06:33N 51°30' E 004°15'0 0.0
2015-Aug-18 04:16N 51°30' E 004°15'0 0.0
2015-Aug-18 04:11N 51°30' E 004°15'0 0.0
2015-Aug-18 04:08N 51°30' E 004°15'0 0.0
2015-Aug-18 03:33N 51°30' E 004°15'0 0.0
2015-Aug-18 02:33N 51°30' E 004°15'0 0.0
2015-Aug-18 01:33N 51°30' E 004°15'0 0.0
2015-Aug-18 00:13N 51°30' E 004°15'0 0.0
2015-Aug-17 23:33N 51°30' E 004°15'0 0.0
2015-Aug-17 22:33N 51°30' E 004°15'0 0.0
2015-Aug-17 21:33N 51°30' E 004°15'0 0.0
2015-Aug-17 20:33N 51°30' E 004°15'0 0.0
2015-Aug-17 19:33N 51°30' E 004°15'0 0.0
2015-Aug-17 18:33N 51°30' E 004°15'0 0.0
2015-Aug-17 17:32N 51°30' E 004°15'0 0.0
2015-Aug-17 16:27N 51°30' E 004°15'0 0.0
2015-Aug-17 15:33N 51°30' E 004°15'0 0.0
2015-Aug-17 14:30N 51°30' E 004°15'0 0.0
2015-Aug-17 13:33N 51°30' E 004°15'0 0.0
2015-Aug-17 11:31N 51°30' E 004°15'0 0.0
2015-Aug-17 10:33N 51°30' E 004°15'0 0.0
2015-Aug-17 09:31N 51°30' E 004°15'0 0.0
2015-Aug-17 08:32N 51°30' E 004°15'0 0.0
2015-Aug-17 07:26N 51°30' E 004°15'0 0.0
2015-Aug-17 06:33N 51°30' E 004°15'0 0.0
2015-Aug-17 05:34N 51°30' E 004°15'0 0.0
2015-Aug-17 04:33N 51°30' E 004°15'0 0.0
2015-Aug-17 03:33N 51°30' E 004°15'0 0.0
2015-Aug-17 02:33N 51°30' E 004°15'0 0.0
2015-Aug-17 01:33N 51°30' E 004°15'0 0.0
2015-Aug-17 00:33N 51°30' E 004°15'0 0.0
2015-Aug-16 23:33N 51°30' E 004°15'0 0.0
2015-Aug-16 22:32N 51°30' E 004°15'0 0.0
2015-Aug-16 21:32N 51°30' E 004°15'0 0.0
2015-Aug-16 20:31N 51°30' E 004°15'0 0.0
2015-Aug-16 19:33N 51°30' E 004°15'0 0.0
2015-Aug-16 18:33N 51°30' E 004°15'0 0.1
2015-Aug-16 17:33N 51°30' E 004°15'1 0.7
2015-Aug-16 16:33N 51°30' E 004°16'0 0.0
2015-Aug-16 15:33N 51°30' E 004°16'1 1.4
2015-Aug-16 14:33N 51°30' E 004°14'7 6.1
2015-Aug-16 13:28N 51°36' E 004°11'9 6.9
2015-Aug-16 12:14N 51°41' E 004°23'3 3.7
2015-Aug-16 11:27N 51°42' E 004°27'7 7.0
2015-Aug-16 10:26N 51°43' E 004°39'21 6.6
2015-Aug-16 07:16N 51°49' E 005°11'5 7.3
2015-Aug-16 06:33N 51°49' E 005°20'14 0.9
2015-Aug-15 16:04N 51°54' E 005°41'5 8.8
2015-Aug-15 15:31N 51°53' E 005°48'17 7.2
2015-Aug-15 13:05N 51°49' E 006°16'38 5.8
2015-Aug-15 06:33N 51°15' E 006°44'5 4.6
2015-Aug-15 05:33N 51°11' E 006°46'5 4.9
2015-Aug-15 04:33N 51°08' E 006°51'11 0.3
2015-Aug-13 18:32N 50°58' E 006°60'  

Dump ship's entire track history